createdAt,value
2023-03-19T00:00:47.148Z,99.90
2023-03-19T00:03:14.180Z,99.90
2023-03-19T00:05:41.665Z,99.90
2023-03-19T00:08:08.755Z,99.90
2023-03-19T00:10:39.482Z,99.90
2023-03-19T00:20:29.454Z,99.90
2023-03-19T00:25:24.231Z,99.90
2023-03-19T00:27:52.709Z,99.90
2023-03-19T00:40:11.943Z,99.90
2023-03-19T00:42:39.716Z,99.90
2023-03-19T00:45:08.090Z,1.00
2023-03-19T00:50:05.253Z,1.00
2023-03-19T00:55:00.840Z,1.00
2023-03-19T01:04:50.893Z,1.00
2023-03-19T01:12:12.919Z,1.00
2023-03-19T01:14:40.437Z,1.00
2023-03-19T01:17:09.096Z,1.00
2023-03-19T01:19:36.620Z,1.00
2023-03-19T01:24:32.723Z,1.00
2023-03-19T01:29:35.706Z,1.00
2023-03-19T01:32:11.630Z,1.00
2023-03-19T01:34:44.446Z,1.00
2023-03-19T01:37:15.462Z,1.00
2023-03-19T01:39:43.639Z,1.00
2023-03-19T01:42:14.363Z,1.00
2023-03-19T01:45:03.853Z,1.00
2023-03-19T01:47:39.352Z,1.00
2023-03-19T01:50:35.952Z,1.00
2023-03-19T01:53:28.268Z,1.00
2023-03-19T01:56:20.981Z,1.00
2023-03-19T01:59:17.556Z,19.90
2023-03-19T02:02:27.924Z,36.50
2023-03-19T02:05:08.095Z,58.20
2023-03-19T02:07:38.727Z,83.80
2023-03-19T02:10:12.336Z,91.50
2023-03-19T02:12:39.803Z,95.40
2023-03-19T02:15:07.616Z,99.90
2023-03-19T02:20:32.978Z,99.90
2023-03-19T02:23:39.647Z,99.90
2023-03-19T02:26:19.568Z,99.90
2023-03-19T02:28:52.075Z,99.90
2023-03-19T02:31:27.949Z,99.90
2023-03-19T02:34:26.865Z,99.90
2023-03-19T02:37:10.526Z,99.90
2023-03-19T02:39:58.298Z,99.90
2023-03-19T02:42:30.422Z,99.90
2023-03-19T02:44:58.416Z,99.90
2023-03-19T02:47:27.047Z,99.90
2023-03-19T02:49:54.450Z,99.90
2023-03-19T02:52:22.064Z,99.90
2023-03-19T02:59:44.383Z,99.90
2023-03-19T03:02:12.108Z,99.90
2023-03-19T03:04:39.149Z,99.90
2023-03-19T03:12:01.932Z,99.90
2023-03-19T03:14:29.621Z,99.90
2023-03-19T03:21:51.928Z,99.90
2023-03-19T03:24:19.271Z,99.90
2023-03-19T03:29:16.569Z,99.90
2023-03-19T03:31:43.555Z,99.90
2023-03-19T03:34:10.830Z,99.90
2023-03-19T03:39:05.852Z,99.90
2023-03-19T03:41:33.135Z,99.90
2023-03-19T03:46:30.609Z,99.90
2023-03-19T03:48:57.834Z,99.90
2023-03-19T03:51:24.838Z,99.90
2023-03-19T03:53:51.866Z,99.90
2023-03-19T03:56:18.874Z,99.90
2023-03-19T04:01:18.696Z,99.90
2023-03-19T04:03:50.244Z,99.90
2023-03-19T04:06:24.047Z,99.90
2023-03-19T04:09:07.865Z,99.90
2023-03-19T04:11:36.542Z,99.90
2023-03-19T04:14:04.184Z,99.90
2023-03-19T04:16:33.236Z,99.90
2023-03-19T04:19:00.752Z,99.90
2023-03-19T04:23:56.790Z,99.90
2023-03-19T04:26:23.813Z,99.90
2023-03-19T04:28:50.799Z,99.90
2023-03-19T04:31:18.125Z,99.90
2023-03-19T04:33:45.644Z,99.90
2023-03-19T04:38:41.470Z,99.90
2023-03-19T04:46:08.048Z,99.90
2023-03-19T04:48:36.419Z,99.90
2023-03-19T04:51:03.950Z,99.90
2023-03-19T05:01:00.476Z,99.90
2023-03-19T05:06:17.225Z,99.90
2023-03-19T05:08:44.369Z,99.90
2023-03-19T05:13:54.214Z,99.90
2023-03-19T05:16:21.356Z,99.90
2023-03-19T05:21:17.502Z,99.90
2023-03-19T05:26:12.764Z,99.90
2023-03-19T05:31:38.576Z,99.90
2023-03-19T05:34:05.997Z,99.90
2023-03-19T05:36:34.603Z,99.90
2023-03-19T05:54:08.184Z,99.90
2023-03-19T05:56:57.236Z,99.90
2023-03-19T06:05:12.008Z,99.90
2023-03-19T06:07:39.231Z,99.90
2023-03-19T06:10:12.287Z,99.90
2023-03-19T06:12:40.453Z,99.90
2023-03-19T06:15:10.927Z,99.90
2023-03-19T06:20:31.921Z,99.90
2023-03-19T06:25:27.748Z,99.90
2023-03-19T06:27:54.822Z,99.90
2023-03-19T06:30:29.293Z,99.90
2023-03-19T06:37:57.876Z,99.90
2023-03-19T06:42:52.321Z,99.90
2023-03-19T06:47:47.566Z,99.90
2023-03-19T06:50:16.669Z,99.90
2023-03-19T06:52:44.620Z,99.90
2023-03-19T06:55:12.546Z,99.90
2023-03-19T07:05:06.433Z,99.90
2023-03-19T07:10:01.139Z,99.90
2023-03-19T07:12:28.672Z,99.90
2023-03-19T07:14:56.569Z,99.90
2023-03-19T07:17:25.283Z,99.90
2023-03-19T07:22:20.017Z,1.00
2023-03-19T07:24:47.015Z,1.00
2023-03-19T07:27:14.142Z,1.00
2023-03-19T07:29:41.103Z,1.00
2023-03-19T07:44:30.464Z,1.00
2023-03-19T07:49:25.389Z,1.00
2023-03-19T07:51:52.523Z,1.00
2023-03-19T07:56:46.948Z,1.00
2023-03-19T08:01:41.395Z,1.00
2023-03-19T08:04:08.465Z,1.00
2023-03-19T08:06:35.488Z,1.00
2023-03-19T08:09:02.485Z,1.00
2023-03-19T08:13:57.120Z,1.00
2023-03-19T08:16:24.381Z,1.00
2023-03-19T08:18:52.534Z,1.00
2023-03-19T08:23:47.278Z,1.00
2023-03-19T08:28:41.785Z,1.00
2023-03-19T08:31:13.981Z,1.00
2023-03-19T08:33:41.629Z,1.00
2023-03-19T08:36:14.370Z,1.00
2023-03-19T08:38:43.479Z,1.00
2023-03-19T08:43:38.734Z,1.00
2023-03-19T08:46:06.472Z,1.00
2023-03-19T08:48:33.534Z,1.00
2023-03-19T08:51:05.787Z,1.00
2023-03-19T08:53:33.517Z,1.00
2023-03-19T08:56:05.404Z,1.00
2023-03-19T09:03:45.305Z,1.00
2023-03-19T09:06:14.836Z,1.00
2023-03-19T09:08:44.932Z,4.90
2023-03-19T09:11:14.244Z,80.30
2023-03-19T09:16:08.732Z,99.90
2023-03-19T09:18:36.603Z,99.90
2023-03-19T09:25:59.118Z,99.90
2023-03-19T09:28:26.333Z,99.90
2023-03-19T09:30:53.613Z,99.90
2023-03-19T09:33:21.622Z,99.90
2023-03-19T09:35:53.954Z,99.90
2023-03-19T09:38:23.127Z,99.90
2023-03-19T09:41:50.214Z,99.90
2023-03-19T09:44:29.704Z,99.90
2023-03-19T09:47:27.390Z,99.90
2023-03-19T09:50:01.260Z,99.90
2023-03-19T09:53:14.717Z,99.90
2023-03-19T09:55:51.816Z,99.90
2023-03-19T09:58:28.269Z,99.90
2023-03-19T10:00:56.924Z,99.90
2023-03-19T10:03:49.566Z,99.90
2023-03-19T10:06:40.205Z,99.90
2023-03-19T10:10:01.328Z,99.90
2023-03-19T10:12:57.058Z,99.90
2023-03-19T10:15:33.777Z,99.90
2023-03-19T10:18:31.202Z,99.90
2023-03-19T10:21:39.517Z,99.90
2023-03-19T10:24:31.247Z,99.90
2023-03-19T10:27:05.432Z,99.90
2023-03-19T10:32:34.800Z,99.90
2023-03-19T10:35:41.210Z,99.90
2023-03-19T10:38:26.722Z,99.90
2023-03-19T10:41:18.758Z,99.90
2023-03-19T10:43:56.870Z,99.90
2023-03-19T10:51:28.937Z,99.90
2023-03-19T10:56:34.485Z,99.90
2023-03-19T10:59:07.382Z,99.90
2023-03-19T11:01:41.576Z,99.90
2023-03-19T11:04:21.928Z,99.90
2023-03-19T11:07:18.280Z,99.90
2023-03-19T11:09:49.571Z,99.90
2023-03-19T11:12:55.791Z,99.90
2023-03-19T11:15:38.064Z,99.90
2023-03-19T11:18:29.569Z,99.90
2023-03-19T11:21:04.072Z,99.90
2023-03-19T11:23:41.338Z,99.90
2023-03-19T11:26:09.931Z,99.90
2023-03-19T11:28:38.113Z,99.90
2023-03-19T11:31:27.210Z,99.90
2023-03-19T11:35:04.885Z,99.90
2023-03-19T11:37:58.042Z,99.90
2023-03-19T11:40:44.235Z,99.90
2023-03-19T11:43:47.973Z,99.90
2023-03-19T11:46:54.706Z,66.30
2023-03-19T11:49:49.581Z,1.00
2023-03-19T11:52:37.082Z,1.00
2023-03-19T11:55:17.442Z,1.00
2023-03-19T11:58:44.828Z,1.00
2023-03-19T12:02:01.626Z,1.00
2023-03-19T12:05:10.018Z,99.90
2023-03-19T12:08:38.293Z,1.00
2023-03-19T12:11:42.984Z,1.00
2023-03-19T12:14:43.380Z,99.90
2023-03-19T12:17:30.922Z,99.90
2023-03-19T12:20:21.927Z,99.90
2023-03-19T12:23:36.281Z,99.90
2023-03-19T12:26:12.407Z,99.90
2023-03-19T12:29:04.475Z,99.90
2023-03-19T12:32:07.347Z,99.90
2023-03-19T12:34:51.315Z,99.90
2023-03-19T12:37:38.534Z,1.00
2023-03-19T12:40:28.308Z,99.90
2023-03-19T12:43:01.982Z,99.90
2023-03-19T12:45:42.596Z,99.90
2023-03-19T12:48:28.485Z,99.90
2023-03-19T12:51:05.761Z,1.00
2023-03-19T12:54:03.520Z,99.90
2023-03-19T12:57:31.743Z,1.00
2023-03-19T13:00:20.627Z,1.00
2023-03-19T13:03:38.652Z,1.00
2023-03-19T13:06:16.716Z,1.00
2023-03-19T13:09:05.620Z,1.00
2023-03-19T13:12:01.986Z,1.00
2023-03-19T13:15:12.762Z,1.00
2023-03-19T13:18:43.894Z,99.90
2023-03-19T13:21:28.876Z,99.90
2023-03-19T13:24:25.977Z,99.90
2023-03-19T13:26:56.889Z,1.00
2023-03-19T13:29:33.902Z,1.00
2023-03-19T13:32:10.314Z,1.00
2023-03-19T13:34:43.255Z,1.00
2023-03-19T13:37:21.829Z,99.90
2023-03-19T13:39:50.769Z,99.90
2023-03-19T13:42:44.503Z,99.90
2023-03-19T13:45:40.097Z,99.90
2023-03-19T13:48:28.523Z,99.90
2023-03-19T13:51:22.638Z,99.90
2023-03-19T13:54:12.873Z,1.00
2023-03-19T13:57:04.587Z,1.00
2023-03-19T13:59:41.510Z,1.00
2023-03-19T14:02:25.486Z,1.00
2023-03-19T14:05:17.104Z,1.00
2023-03-19T14:07:54.252Z,1.00
2023-03-19T14:10:32.224Z,1.00
2023-03-19T14:13:20.387Z,1.00
2023-03-19T14:15:52.279Z,1.00
2023-03-19T14:18:24.772Z,1.00
2023-03-19T14:21:12.964Z,24.70
2023-03-19T14:23:55.196Z,1.00
2023-03-19T14:26:31.076Z,1.00
2023-03-19T14:29:04.644Z,1.00
2023-03-19T14:32:02.736Z,1.00
2023-03-19T14:34:41.239Z,1.00
2023-03-19T14:37:28.315Z,1.00
2023-03-19T14:40:27.547Z,1.00
2023-03-19T14:43:34.536Z,1.00
2023-03-19T14:46:04.783Z,1.00
2023-03-19T14:54:53.467Z,35.70
2023-03-19T14:57:27.449Z,67.20
2023-03-19T14:59:55.835Z,99.90
2023-03-19T15:02:39.271Z,99.90
2023-03-19T15:05:33.632Z,99.90
2023-03-19T15:08:12.033Z,99.90
2023-03-19T15:11:14.279Z,99.90
2023-03-19T15:14:24.712Z,99.90
2023-03-19T15:17:14.497Z,99.90
2023-03-19T15:22:21.969Z,99.90
2023-03-19T15:24:50.456Z,99.90
2023-03-19T15:27:26.600Z,1.00
2023-03-19T15:30:03.211Z,1.00
2023-03-19T15:33:04.537Z,1.00
2023-03-19T15:35:36.404Z,1.00
2023-03-19T15:38:11.384Z,95.30
2023-03-19T15:40:41.851Z,99.90
2023-03-19T15:43:13.302Z,99.90
2023-03-19T15:45:48.080Z,99.90
2023-03-19T15:48:58.864Z,99.90
2023-03-19T15:51:27.723Z,99.90
2023-03-19T15:53:56.531Z,99.90
2023-03-19T15:56:25.070Z,99.90
2023-03-19T15:58:57.194Z,99.90
2023-03-19T16:01:27.548Z,1.00
2023-03-19T16:04:14.879Z,1.00
2023-03-19T16:06:50.765Z,1.00
2023-03-19T16:09:33.923Z,1.00
2023-03-19T16:12:02.567Z,1.00
2023-03-19T16:14:42.238Z,1.00
2023-03-19T16:17:16.825Z,1.00
2023-03-19T16:19:56.474Z,1.00
2023-03-19T16:22:30.723Z,1.00
2023-03-19T16:25:01.961Z,1.00
2023-03-19T16:27:37.905Z,1.00
2023-03-19T16:30:16.691Z,1.00
2023-03-19T16:35:19.966Z,1.00
2023-03-19T16:37:49.949Z,1.00
2023-03-19T16:42:56.638Z,1.00
2023-03-19T16:45:34.690Z,1.00
2023-03-19T16:48:03.707Z,1.00
2023-03-19T16:50:40.237Z,1.00
2023-03-19T16:53:32.116Z,1.00
2023-03-19T16:56:01.786Z,1.00
2023-03-19T16:58:42.672Z,6.50
2023-03-19T17:01:20.189Z,26.60
2023-03-19T17:03:49.626Z,78.20
2023-03-19T17:06:18.809Z,99.90
2023-03-19T17:08:46.768Z,99.90
2023-03-19T17:11:34.113Z,99.90
2023-03-19T17:14:03.814Z,99.90
2023-03-19T17:16:31.539Z,99.90
2023-03-19T17:19:07.640Z,99.90
2023-03-19T17:21:36.631Z,99.90
2023-03-19T17:24:33.220Z,99.90
2023-03-19T17:27:04.439Z,99.90
2023-03-19T17:29:35.925Z,99.90
2023-03-19T17:32:18.269Z,99.90
2023-03-19T17:34:45.720Z,99.90
2023-03-19T17:37:16.740Z,99.90
2023-03-19T17:39:45.612Z,99.90
2023-03-19T17:42:23.842Z,99.90
2023-03-19T17:44:53.584Z,99.90
2023-03-19T17:47:21.067Z,99.90
2023-03-19T17:52:18.551Z,99.90
2023-03-19T17:54:46.051Z,99.90
2023-03-19T17:57:15.524Z,99.90
2023-03-19T18:02:28.237Z,99.90
2023-03-19T18:04:56.072Z,99.90
2023-03-19T18:09:50.547Z,99.90
2023-03-19T18:12:17.585Z,99.90
2023-03-19T18:14:44.889Z,99.90
2023-03-19T18:17:17.468Z,99.90
2023-03-19T18:19:47.711Z,99.90
2023-03-19T18:22:18.259Z,99.90
2023-03-19T18:32:24.018Z,99.90
2023-03-19T18:34:51.177Z,99.90
2023-03-19T18:37:18.728Z,99.90
2023-03-19T18:39:46.313Z,99.90
2023-03-19T18:42:14.471Z,99.90
2023-03-19T18:44:41.919Z,99.90
2023-03-19T18:47:16.581Z,99.90
2023-03-19T18:49:45.052Z,99.90
2023-03-19T18:52:16.548Z,99.90
2023-03-19T18:57:16.814Z,99.90
2023-03-19T19:02:33.314Z,99.90
2023-03-19T19:09:57.391Z,99.90
2023-03-19T19:12:27.184Z,99.90
2023-03-19T19:14:54.374Z,99.90
2023-03-19T19:17:24.461Z,99.90
2023-03-19T19:19:51.737Z,99.90
2023-03-19T19:22:20.161Z,99.90
2023-03-19T19:24:47.602Z,99.90
2023-03-19T19:27:23.804Z,99.90
2023-03-19T19:29:51.121Z,99.90
2023-03-19T19:32:30.733Z,99.90
2023-03-19T19:39:53.238Z,99.90
2023-03-19T19:42:22.788Z,99.90
2023-03-19T19:44:59.059Z,99.90
2023-03-19T19:47:27.851Z,99.90
2023-03-19T19:52:23.396Z,99.90
2023-03-19T19:57:24.451Z,99.90
2023-03-19T19:59:53.281Z,99.90
2023-03-19T20:02:25.920Z,99.90
2023-03-19T20:04:53.013Z,99.90
2023-03-19T20:09:48.281Z,99.90
2023-03-19T20:12:26.871Z,99.90
2023-03-19T20:17:22.740Z,99.90
2023-03-19T20:19:50.217Z,99.90
2023-03-19T20:22:17.569Z,99.90
2023-03-19T20:24:48.302Z,99.90
2023-03-19T20:27:23.624Z,99.90
2023-03-19T20:32:37.289Z,99.90
2023-03-19T20:35:19.392Z,99.90
2023-03-19T20:40:15.484Z,99.90
2023-03-19T20:42:51.533Z,99.90
2023-03-19T20:45:34.354Z,99.90
2023-03-19T20:48:02.142Z,99.90
2023-03-19T20:50:32.709Z,99.90
2023-03-19T20:53:01.355Z,99.90
2023-03-19T20:55:35.059Z,99.90
2023-03-19T20:58:13.858Z,99.90
2023-03-19T21:00:41.009Z,99.90
2023-03-19T21:03:22.750Z,99.90
2023-03-19T21:06:18.754Z,99.90
2023-03-19T21:08:56.945Z,99.90
2023-03-19T21:11:38.002Z,99.90
2023-03-19T21:14:06.417Z,99.90
2023-03-19T21:16:33.976Z,99.90
2023-03-19T21:19:01.491Z,99.90
2023-03-19T21:21:35.042Z,99.90
2023-03-19T21:24:20.768Z,99.90
2023-03-19T21:29:29.149Z,99.90
2023-03-19T21:34:25.173Z,99.90
2023-03-19T21:39:19.719Z,99.90
2023-03-19T21:44:21.481Z,99.90
2023-03-19T21:46:49.278Z,99.90
2023-03-19T21:49:16.584Z,99.90
2023-03-19T21:54:11.264Z,99.90
2023-03-19T21:56:43.548Z,99.90
2023-03-19T21:59:22.016Z,99.90
2023-03-19T22:04:16.568Z,99.90
2023-03-19T22:11:40.743Z,99.90
2023-03-19T22:14:24.513Z,99.90
2023-03-19T22:16:54.986Z,99.90
2023-03-19T22:19:22.695Z,99.90
2023-03-19T22:26:49.426Z,99.90
2023-03-19T22:29:23.476Z,99.90
2023-03-19T22:31:53.298Z,99.90
2023-03-19T22:34:25.885Z,99.90
2023-03-19T22:39:20.694Z,99.90
2023-03-19T22:41:49.306Z,99.90
2023-03-19T22:44:29.659Z,99.90
2023-03-19T22:47:00.101Z,99.90
2023-03-19T22:49:29.806Z,99.90
2023-03-19T22:52:12.919Z,99.90
2023-03-19T22:54:41.569Z,99.90
2023-03-19T22:57:14.779Z,99.90
2023-03-19T22:59:43.249Z,99.90
2023-03-19T23:02:16.446Z,99.90
2023-03-19T23:04:43.620Z,99.90
2023-03-19T23:07:13.967Z,99.90
2023-03-19T23:09:41.698Z,99.90
2023-03-19T23:17:17.393Z,99.90
2023-03-19T23:19:44.643Z,99.90
2023-03-19T23:22:16.814Z,99.90
2023-03-19T23:24:44.657Z,99.90
2023-03-19T23:27:25.976Z,99.90
2023-03-19T23:29:53.668Z,99.90
2023-03-19T23:32:21.665Z,99.90
2023-03-19T23:39:56.174Z,99.90
2023-03-19T23:42:29.969Z,99.90
2023-03-19T23:45:01.853Z,99.90
2023-03-19T23:47:30.970Z,99.90
2023-03-19T23:49:58.274Z,99.90
2023-03-19T23:52:26.668Z,99.90
2023-03-19T23:57:24.507Z,99.90
2023-03-19T23:59:53.368Z,99.90
